createdAt,value
2017-09-22T00:00:51.544Z,10.80
2017-09-22T00:03:18.976Z,10.90
2017-09-22T00:05:47.195Z,10.80
2017-09-22T00:08:14.639Z,10.80
2017-09-22T00:10:42.078Z,10.80
2017-09-22T00:13:10.284Z,10.90
2017-09-22T00:15:37.716Z,10.80
2017-09-22T00:18:05.151Z,10.80
2017-09-22T00:20:32.599Z,10.90
2017-09-22T00:23:00.077Z,10.90
2017-09-22T00:25:28.286Z,10.80
2017-09-22T00:27:55.719Z,10.80
2017-09-22T00:30:23.170Z,10.80
2017-09-22T00:32:51.375Z,10.80
2017-09-22T00:35:18.809Z,10.80
2017-09-22T00:37:46.253Z,10.80
2017-09-22T00:40:14.453Z,10.70
2017-09-22T00:42:41.897Z,10.60
2017-09-22T00:45:09.328Z,10.70
2017-09-22T00:47:36.762Z,10.70
2017-09-22T00:50:04.200Z,10.70
2017-09-22T00:52:31.643Z,10.70
2017-09-22T00:54:59.071Z,10.70
2017-09-22T00:57:27.279Z,10.80
2017-09-22T00:59:54.711Z,10.70
2017-09-22T01:02:22.155Z,10.80
2017-09-22T01:04:50.367Z,10.80
2017-09-22T01:07:17.804Z,10.70
2017-09-22T01:09:45.999Z,10.80
2017-09-22T01:12:13.437Z,10.80
2017-09-22T01:14:40.869Z,10.80
2017-09-22T01:17:09.073Z,10.80
2017-09-22T01:19:36.521Z,10.80
2017-09-22T01:22:03.957Z,10.80
2017-09-22T01:24:32.152Z,10.80
2017-09-22T01:26:59.593Z,10.80
2017-09-22T01:29:27.790Z,10.80
2017-09-22T01:31:55.245Z,10.80
2017-09-22T01:34:22.675Z,10.70
2017-09-22T01:36:50.875Z,10.60
2017-09-22T01:39:18.311Z,10.60
2017-09-22T01:41:46.513Z,10.50
2017-09-22T01:44:13.961Z,10.50
2017-09-22T01:46:41.398Z,10.50
2017-09-22T01:49:09.597Z,10.50
2017-09-22T01:51:37.024Z,10.50
2017-09-22T01:54:05.228Z,10.50
2017-09-22T01:56:32.656Z,10.50
2017-09-22T01:59:00.856Z,10.40
2017-09-22T02:01:28.292Z,10.40
2017-09-22T02:03:56.493Z,10.30
2017-09-22T02:06:23.925Z,10.30
2017-09-22T02:08:52.128Z,10.40
2017-09-22T02:11:19.566Z,10.40
2017-09-22T02:13:47.769Z,10.40
2017-09-22T02:16:15.198Z,10.40
2017-09-22T02:18:43.413Z,10.40
2017-09-22T02:21:10.844Z,10.40
2017-09-22T02:23:38.285Z,10.30
2017-09-22T02:26:06.490Z,10.30
2017-09-22T02:28:33.936Z,10.40
2017-09-22T02:31:01.364Z,10.30
2017-09-22T02:33:29.582Z,10.20
2017-09-22T02:35:57.024Z,10.20
2017-09-22T02:38:24.453Z,10.20
2017-09-22T02:40:52.691Z,10.10
2017-09-22T02:43:20.099Z,10.10
2017-09-22T02:45:48.301Z,10.10
2017-09-22T02:48:15.739Z,10.10
2017-09-22T02:50:43.188Z,10.10
2017-09-22T02:53:11.391Z,10.00
2017-09-22T02:55:38.829Z,10.00
2017-09-22T02:58:06.260Z,10.10
2017-09-22T03:00:34.473Z,10.00
2017-09-22T03:03:01.906Z,10.00
2017-09-22T03:05:29.336Z,9.90
2017-09-22T03:07:56.769Z,9.90
2017-09-22T03:10:24.204Z,9.90
2017-09-22T03:12:51.636Z,9.90
2017-09-22T03:15:19.068Z,9.90
2017-09-22T03:17:46.522Z,9.90
2017-09-22T03:20:13.951Z,10.00
2017-09-22T03:22:43.924Z,9.90
2017-09-22T03:25:11.380Z,10.00
2017-09-22T03:27:39.837Z,10.00
2017-09-22T03:30:08.037Z,10.00
2017-09-22T03:32:35.464Z,10.00
2017-09-22T03:35:03.861Z,10.00
2017-09-22T03:37:32.067Z,10.10
2017-09-22T03:39:59.497Z,10.10
2017-09-22T03:42:26.942Z,10.10
2017-09-22T03:44:55.140Z,10.00
2017-09-22T03:47:22.600Z,10.00
2017-09-22T03:49:50.037Z,10.00
2017-09-22T03:52:18.246Z,10.00
2017-09-22T03:54:45.673Z,10.00
2017-09-22T03:57:13.882Z,10.00
2017-09-22T03:59:41.320Z,10.00
2017-09-22T04:02:08.785Z,10.00
2017-09-22T04:04:36.216Z,10.00
2017-09-22T04:07:04.421Z,10.00
2017-09-22T04:09:31.848Z,10.00
2017-09-22T04:12:00.053Z,10.00
2017-09-22T04:14:27.497Z,10.00
2017-09-22T04:16:54.929Z,10.10
2017-09-22T04:19:23.121Z,10.10
2017-09-22T04:21:50.552Z,10.10
2017-09-22T04:24:18.751Z,10.10
2017-09-22T04:26:46.240Z,10.10
2017-09-22T04:29:13.763Z,10.20
2017-09-22T04:31:41.256Z,10.10
2017-09-22T04:34:08.690Z,10.20
2017-09-22T04:36:36.131Z,10.20
2017-09-22T04:39:04.333Z,10.10
2017-09-22T04:41:31.792Z,10.10
2017-09-22T04:43:59.252Z,10.20
2017-09-22T04:46:26.689Z,10.20
2017-09-22T04:48:54.178Z,10.20
2017-09-22T04:51:21.593Z,10.20
2017-09-22T04:53:49.795Z,10.30
2017-09-22T04:56:17.227Z,10.30
2017-09-22T04:58:44.834Z,10.40
2017-09-22T05:01:12.268Z,10.40
2017-09-22T05:03:39.713Z,10.40
2017-09-22T05:06:07.150Z,10.50
2017-09-22T05:08:35.468Z,10.40
2017-09-22T05:11:02.901Z,10.40
2017-09-22T05:13:30.341Z,10.40
2017-09-22T05:15:58.608Z,10.40
2017-09-22T05:18:26.803Z,10.40
2017-09-22T05:20:54.283Z,10.40
2017-09-22T05:23:21.751Z,10.40
2017-09-22T05:25:49.206Z,10.40
2017-09-22T05:28:16.621Z,10.40
2017-09-22T05:30:44.818Z,10.40
2017-09-22T05:33:12.253Z,10.40
2017-09-22T05:35:40.458Z,10.30
2017-09-22T05:38:07.931Z,10.30
2017-09-22T05:40:35.349Z,10.30
2017-09-22T05:43:02.794Z,10.30
2017-09-22T05:45:32.088Z,10.20
2017-09-22T05:48:00.286Z,10.30
2017-09-22T05:50:27.720Z,10.20
2017-09-22T05:52:55.923Z,10.20
2017-09-22T05:55:23.357Z,10.20
2017-09-22T05:57:51.551Z,10.30
2017-09-22T06:00:18.993Z,10.30
2017-09-22T06:02:47.212Z,10.30
2017-09-22T06:05:14.653Z,10.30
2017-09-22T06:07:42.076Z,10.30
2017-09-22T06:10:10.282Z,10.30
2017-09-22T06:12:37.713Z,10.30
2017-09-22T06:15:05.921Z,10.30
2017-09-22T06:17:33.348Z,10.30
2017-09-22T06:20:00.784Z,10.30
2017-09-22T06:22:28.222Z,10.30
2017-09-22T06:24:55.709Z,10.40
2017-09-22T06:27:23.906Z,10.40
2017-09-22T06:29:51.341Z,10.40
2017-09-22T06:32:19.542Z,10.60
2017-09-22T06:34:46.972Z,10.60
2017-09-22T06:37:15.178Z,10.70
2017-09-22T06:39:42.621Z,10.70
2017-09-22T06:42:10.053Z,10.80
2017-09-22T06:44:37.508Z,10.90
2017-09-22T06:47:05.712Z,11.00
2017-09-22T06:49:33.300Z,11.00
2017-09-22T06:52:00.734Z,11.00
2017-09-22T06:54:28.160Z,11.00
2017-09-22T06:56:56.377Z,10.90
2017-09-22T06:59:23.841Z,10.90
2017-09-22T07:01:51.287Z,10.90
2017-09-22T07:04:18.730Z,11.00
2017-09-22T07:06:46.163Z,11.10
2017-09-22T07:09:14.364Z,11.30
2017-09-22T07:11:41.798Z,11.20
2017-09-22T07:14:09.996Z,11.30
2017-09-22T07:16:37.434Z,11.30
2017-09-22T07:19:05.629Z,11.60
2017-09-22T07:21:33.086Z,11.50
2017-09-22T07:24:01.264Z,11.90
2017-09-22T07:26:28.720Z,11.90
2017-09-22T07:28:56.140Z,12.10
2017-09-22T07:31:23.577Z,12.20
2017-09-22T07:33:51.063Z,12.20
2017-09-22T07:36:19.271Z,12.40
2017-09-22T07:38:46.874Z,12.40
2017-09-22T07:41:14.312Z,12.60
2017-09-22T07:43:41.758Z,12.70
2017-09-22T07:46:09.203Z,13.00
2017-09-22T07:48:36.633Z,13.60
2017-09-22T07:51:04.838Z,14.30
2017-09-22T07:53:32.281Z,14.30
2017-09-22T07:55:59.708Z,15.10
2017-09-22T07:58:27.143Z,16.00
2017-09-22T08:00:54.577Z,16.20
2017-09-22T08:03:22.023Z,16.70
2017-09-22T08:05:49.461Z,17.00
2017-09-22T08:08:16.893Z,17.50
2017-09-22T08:10:45.098Z,18.40
2017-09-22T08:13:12.566Z,18.30
2017-09-22T08:15:39.997Z,18.50
2017-09-22T08:18:08.208Z,19.20
2017-09-22T08:20:35.645Z,19.20
2017-09-22T08:23:03.088Z,19.90
2017-09-22T08:25:30.519Z,20.60
2017-09-22T08:27:57.956Z,20.30
2017-09-22T08:30:25.437Z,20.50
2017-09-22T08:32:52.885Z,20.70
2017-09-22T08:35:20.316Z,21.10
2017-09-22T08:37:47.759Z,21.20
2017-09-22T08:40:15.186Z,21.10
2017-09-22T08:42:42.648Z,21.40
2017-09-22T08:45:10.088Z,21.60
2017-09-22T08:47:38.284Z,22.00
2017-09-22T08:50:05.745Z,22.00
2017-09-22T08:52:33.180Z,22.20
2017-09-22T08:55:01.389Z,22.10
2017-09-22T08:57:28.821Z,22.10
2017-09-22T08:59:56.268Z,22.00
2017-09-22T09:02:24.541Z,20.70
2017-09-22T09:04:52.750Z,20.60
2017-09-22T09:07:20.194Z,20.60
2017-09-22T09:09:47.648Z,20.60
2017-09-22T09:12:15.081Z,20.60
2017-09-22T09:14:43.285Z,21.00
2017-09-22T09:17:10.716Z,21.00
2017-09-22T09:19:38.922Z,21.50
2017-09-22T09:22:06.353Z,21.50
2017-09-22T09:24:34.563Z,21.40
2017-09-22T09:27:02.001Z,21.40
2017-09-22T09:29:29.449Z,21.50
2017-09-22T09:31:56.876Z,21.70
2017-09-22T09:34:24.317Z,21.70
2017-09-22T09:36:51.757Z,21.70
2017-09-22T09:39:19.202Z,21.60
2017-09-22T09:41:46.633Z,21.60
2017-09-22T09:44:14.073Z,21.30
2017-09-22T09:46:41.513Z,21.20
2017-09-22T09:49:08.945Z,21.30
2017-09-22T09:51:36.386Z,21.40
2017-09-22T09:54:03.812Z,21.40
2017-09-22T09:56:32.020Z,21.30
2017-09-22T09:58:59.460Z,21.30
2017-09-22T10:01:26.917Z,21.50
2017-09-22T10:03:54.341Z,21.60
2017-09-22T10:06:21.786Z,21.40
2017-09-22T10:08:49.229Z,21.50
2017-09-22T10:11:16.679Z,21.20
2017-09-22T10:13:44.116Z,21.10
2017-09-22T10:16:11.561Z,21.00
2017-09-22T10:18:38.999Z,21.00
2017-09-22T10:21:07.204Z,20.90
2017-09-22T10:23:34.653Z,20.90
2017-09-22T10:26:02.076Z,21.20
2017-09-22T10:28:30.276Z,21.30
2017-09-22T10:30:57.722Z,21.30
2017-09-22T10:33:25.926Z,21.50
2017-09-22T10:35:53.367Z,21.50
2017-09-22T10:38:20.812Z,21.60
2017-09-22T10:40:49.024Z,21.50
2017-09-22T10:43:16.463Z,21.50
2017-09-22T10:45:43.952Z,21.70
2017-09-22T10:48:11.419Z,21.90
2017-09-22T10:50:38.880Z,21.90
2017-09-22T10:53:06.315Z,22.00
2017-09-22T10:55:33.756Z,21.90
2017-09-22T10:58:01.197Z,22.00
2017-09-22T11:00:28.634Z,22.20
2017-09-22T11:02:56.919Z,22.80
2017-09-22T11:05:25.121Z,22.70
2017-09-22T11:07:52.577Z,22.70
2017-09-22T11:10:20.040Z,22.80
2017-09-22T11:12:47.548Z,22.80
2017-09-22T11:15:15.806Z,23.20
2017-09-22T11:17:43.236Z,23.10
2017-09-22T11:20:10.689Z,23.30
2017-09-22T11:22:38.120Z,23.20
2017-09-22T11:25:05.598Z,22.80
2017-09-22T11:27:33.035Z,22.60
2017-09-22T11:30:00.564Z,22.60
2017-09-22T11:32:28.792Z,22.10
2017-09-22T11:34:56.228Z,22.00
2017-09-22T11:37:23.664Z,22.00
2017-09-22T11:39:51.935Z,21.20
2017-09-22T11:42:20.207Z,21.20
2017-09-22T11:44:47.637Z,21.20
2017-09-22T11:47:15.101Z,21.20
2017-09-22T11:49:42.540Z,21.30
2017-09-22T11:52:09.987Z,21.40
2017-09-22T11:54:37.421Z,21.30
2017-09-22T11:57:04.857Z,21.30
2017-09-22T11:59:33.137Z,20.90
2017-09-22T12:02:02.331Z,21.00
2017-09-22T12:04:30.528Z,21.10
2017-09-22T12:06:57.967Z,21.10
2017-09-22T12:09:26.170Z,20.90
2017-09-22T12:11:54.662Z,20.90
2017-09-22T12:14:22.088Z,20.90
2017-09-22T12:16:49.528Z,20.80
2017-09-22T12:19:17.745Z,20.60
2017-09-22T12:21:45.185Z,20.70
2017-09-22T12:24:12.628Z,20.70
2017-09-22T12:26:40.820Z,20.70
2017-09-22T12:29:09.270Z,20.70
2017-09-22T12:31:37.465Z,20.50
2017-09-22T12:34:04.909Z,20.40
2017-09-22T12:36:33.100Z,20.40
2017-09-22T12:39:00.537Z,20.40
2017-09-22T12:41:28.772Z,20.40
2017-09-22T12:43:56.208Z,20.40
2017-09-22T12:46:23.642Z,20.50
2017-09-22T12:48:51.081Z,20.60
2017-09-22T12:51:19.292Z,20.80
2017-09-22T12:53:46.701Z,20.80
2017-09-22T12:56:14.146Z,20.80
2017-09-22T12:58:41.580Z,20.80
2017-09-22T13:01:09.036Z,20.80
2017-09-22T13:03:36.492Z,20.80
2017-09-22T13:06:03.931Z,20.50
2017-09-22T13:08:31.398Z,20.50
2017-09-22T13:10:58.824Z,20.70
2017-09-22T13:13:26.257Z,20.80
2017-09-22T13:15:53.684Z,20.90
2017-09-22T13:18:21.232Z,20.90
2017-09-22T13:20:49.663Z,21.00
2017-09-22T13:23:17.864Z,21.20
2017-09-22T13:25:45.395Z,21.20
2017-09-22T13:28:13.593Z,21.20
2017-09-22T13:30:41.032Z,21.20
2017-09-22T13:33:09.231Z,21.00
2017-09-22T13:35:36.696Z,21.00
2017-09-22T13:38:04.105Z,20.90
2017-09-22T13:40:31.551Z,20.70
2017-09-22T13:42:58.981Z,20.70
2017-09-22T13:45:26.417Z,20.70
2017-09-22T13:47:53.893Z,20.70
2017-09-22T13:50:21.316Z,20.60
2017-09-22T13:52:48.743Z,20.60
2017-09-22T13:55:16.182Z,20.40
2017-09-22T13:57:43.637Z,20.50
2017-09-22T14:00:11.076Z,20.50
2017-09-22T14:02:38.508Z,20.40
2017-09-22T14:05:05.943Z,20.40
2017-09-22T14:07:34.913Z,20.30
2017-09-22T14:10:02.344Z,20.30
2017-09-22T14:12:29.774Z,20.20
2017-09-22T14:14:58.035Z,20.20
2017-09-22T14:17:26.242Z,20.10
2017-09-22T14:19:53.672Z,20.10
2017-09-22T14:22:21.096Z,20.00
2017-09-22T14:24:48.527Z,20.00
2017-09-22T14:27:15.952Z,19.90
2017-09-22T14:29:43.384Z,19.90
2017-09-22T14:32:11.578Z,19.80
2017-09-22T14:34:40.029Z,19.80
2017-09-22T14:37:07.460Z,19.80
2017-09-22T14:39:34.893Z,19.70
2017-09-22T14:42:02.312Z,19.70
2017-09-22T14:44:30.505Z,19.60
2017-09-22T14:46:57.972Z,19.60
2017-09-22T14:49:25.398Z,19.70
2017-09-22T14:51:53.591Z,19.70
2017-09-22T14:54:21.023Z,19.70
2017-09-22T14:56:48.452Z,19.70
2017-09-22T14:59:15.879Z,19.70
2017-09-22T15:01:43.321Z,19.70
2017-09-22T15:04:10.791Z,19.70
2017-09-22T15:06:38.223Z,19.70
2017-09-22T15:09:05.648Z,19.70
2017-09-22T15:11:33.081Z,19.70
2017-09-22T15:14:00.507Z,19.70
2017-09-22T15:16:27.927Z,19.70
2017-09-22T15:18:56.135Z,19.50
2017-09-22T15:21:23.555Z,19.50
2017-09-22T15:23:51.032Z,19.60
2017-09-22T15:26:19.237Z,19.50
2017-09-22T15:28:46.664Z,19.50
2017-09-22T15:31:14.858Z,19.50
2017-09-22T15:33:42.281Z,19.50
2017-09-22T15:36:10.558Z,19.50
2017-09-22T15:38:38.757Z,19.40
2017-09-22T15:41:06.182Z,19.40
2017-09-22T15:43:33.616Z,19.40
2017-09-22T15:46:01.047Z,19.40
2017-09-22T15:48:28.480Z,19.40
2017-09-22T15:50:55.912Z,19.40
2017-09-22T15:53:23.340Z,19.40
2017-09-22T15:55:50.771Z,19.40
2017-09-22T15:58:18.196Z,19.30
2017-09-22T16:00:46.710Z,19.30
2017-09-22T16:03:15.137Z,19.20
2017-09-22T16:05:42.595Z,19.30
2017-09-22T16:08:10.031Z,19.20
2017-09-22T16:10:37.460Z,19.20
2017-09-22T16:13:04.884Z,19.20
2017-09-22T16:15:33.080Z,19.10
2017-09-22T16:18:00.506Z,19.10
2017-09-22T16:20:28.708Z,19.00
2017-09-22T16:22:56.146Z,19.00
2017-09-22T16:25:23.565Z,19.00
2017-09-22T16:27:51.000Z,19.00
2017-09-22T16:30:18.450Z,19.00
2017-09-22T16:32:45.882Z,18.90
2017-09-22T16:35:14.141Z,18.80
2017-09-22T16:37:42.337Z,18.80
2017-09-22T16:40:09.786Z,18.80
2017-09-22T16:42:37.977Z,18.70
2017-09-22T16:45:05.412Z,18.70
2017-09-22T16:47:33.619Z,18.70
2017-09-22T16:50:01.045Z,18.70
2017-09-22T16:52:29.250Z,18.60
2017-09-22T16:54:56.724Z,18.60
2017-09-22T16:57:24.166Z,18.60
2017-09-22T16:59:51.589Z,18.50
2017-09-22T17:02:19.785Z,18.50
2017-09-22T17:04:47.210Z,18.40
2017-09-22T17:07:15.408Z,18.40
2017-09-22T17:09:42.845Z,18.30
2017-09-22T17:12:10.269Z,18.30
2017-09-22T17:14:37.705Z,18.30
2017-09-22T17:17:05.132Z,18.30
2017-09-22T17:19:32.555Z,18.20
2017-09-22T17:21:59.993Z,18.20
2017-09-22T17:24:27.427Z,18.10
2017-09-22T17:26:54.869Z,18.10
2017-09-22T17:29:22.296Z,18.00
2017-09-22T17:31:50.497Z,17.90
2017-09-22T17:34:17.934Z,17.90
2017-09-22T17:36:46.133Z,17.80
2017-09-22T17:39:13.552Z,17.80
2017-09-22T17:41:41.761Z,17.60
2017-09-22T17:44:09.188Z,17.60
2017-09-22T17:46:37.412Z,17.40
2017-09-22T17:49:04.831Z,17.40
2017-09-22T17:51:33.031Z,17.30
2017-09-22T17:54:00.454Z,17.20
2017-09-22T17:56:28.670Z,17.10
2017-09-22T17:58:56.112Z,17.00
2017-09-22T18:01:23.545Z,17.00
2017-09-22T18:03:51.757Z,16.90
2017-09-22T18:06:19.185Z,16.80
2017-09-22T18:08:46.889Z,16.80
2017-09-22T18:11:14.321Z,16.70
2017-09-22T18:13:41.766Z,16.70
2017-09-22T18:16:09.205Z,16.60
2017-09-22T18:18:37.408Z,16.50
2017-09-22T18:21:04.849Z,16.50
2017-09-22T18:23:33.053Z,16.40
2017-09-22T18:26:00.489Z,16.40
2017-09-22T18:28:27.941Z,16.30
2017-09-22T18:30:56.141Z,16.20
2017-09-22T18:33:23.585Z,16.20
2017-09-22T18:35:51.015Z,16.20
2017-09-22T18:38:19.228Z,16.10
2017-09-22T18:40:46.673Z,16.10
2017-09-22T18:43:14.112Z,16.10
2017-09-22T18:45:42.419Z,15.90
2017-09-22T18:48:09.901Z,15.90
2017-09-22T18:50:37.354Z,15.80
2017-09-22T18:53:04.792Z,15.70
2017-09-22T18:55:32.234Z,15.50
2017-09-22T18:57:59.683Z,15.50
2017-09-22T19:00:27.117Z,15.50
2017-09-22T19:02:55.321Z,15.40
2017-09-22T19:05:22.768Z,15.40
2017-09-22T19:07:50.963Z,15.30
2017-09-22T19:10:18.400Z,15.30
2017-09-22T19:12:46.600Z,15.20
2017-09-22T19:15:14.044Z,15.20
2017-09-22T19:17:41.482Z,15.20
2017-09-22T19:20:09.749Z,15.10
2017-09-22T19:22:37.943Z,15.00
2017-09-22T19:25:05.379Z,15.00
2017-09-22T19:27:33.581Z,14.90
2017-09-22T19:30:01.031Z,14.90
2017-09-22T19:32:28.457Z,14.90
2017-09-22T19:34:55.898Z,14.80
2017-09-22T19:37:23.422Z,14.80
2017-09-22T19:39:50.941Z,14.80
2017-09-22T19:42:19.141Z,14.60
2017-09-22T19:44:46.833Z,14.50
2017-09-22T19:47:14.272Z,14.50
2017-09-22T19:49:41.700Z,14.40
2017-09-22T19:52:09.902Z,14.40
2017-09-22T19:54:37.336Z,14.30
2017-09-22T19:57:04.879Z,14.30
2017-09-22T19:59:33.098Z,14.30
2017-09-22T20:02:00.530Z,14.20
2017-09-22T20:04:28.729Z,14.00
2017-09-22T20:06:56.163Z,13.90
2017-09-22T20:09:23.595Z,13.90
2017-09-22T20:11:51.815Z,13.90
2017-09-22T20:14:22.625Z,13.90
2017-09-22T20:16:50.837Z,13.70
2017-09-22T20:19:18.270Z,13.70
2017-09-22T20:21:45.708Z,13.70
2017-09-22T20:24:13.904Z,13.70
2017-09-22T20:26:41.416Z,13.70
2017-09-22T20:29:08.900Z,13.70
2017-09-22T20:31:37.118Z,13.50
2017-09-22T20:34:04.553Z,13.50
2017-09-22T20:36:32.094Z,13.30
2017-09-22T20:39:00.348Z,13.40
2017-09-22T20:41:27.784Z,13.40
2017-09-22T20:43:55.276Z,13.40
2017-09-22T20:46:23.500Z,13.30
2017-09-22T20:48:50.931Z,13.30
2017-09-22T20:51:18.459Z,13.20
2017-09-22T20:53:46.736Z,13.20
2017-09-22T20:56:14.944Z,13.20
2017-09-22T20:58:42.373Z,13.20
2017-09-22T21:01:10.585Z,13.10
2017-09-22T21:03:38.016Z,13.10
2017-09-22T21:06:05.452Z,13.10
2017-09-22T21:08:32.893Z,13.10
2017-09-22T21:11:00.316Z,13.00
2017-09-22T21:13:27.773Z,13.00
2017-09-22T21:15:55.196Z,13.00
2017-09-22T21:18:23.401Z,13.00
2017-09-22T21:20:50.837Z,13.00
2017-09-22T21:23:18.272Z,13.00
2017-09-22T21:25:46.477Z,12.90
2017-09-22T21:28:13.919Z,12.90
2017-09-22T21:30:41.348Z,13.00
2017-09-22T21:33:08.789Z,12.90
2017-09-22T21:35:36.240Z,12.90
2017-09-22T21:38:03.681Z,12.90
2017-09-22T21:40:31.115Z,12.80
2017-09-22T21:42:58.554Z,12.80
2017-09-22T21:45:26.744Z,12.80
2017-09-22T21:47:54.193Z,12.80
2017-09-22T21:50:22.390Z,12.90
2017-09-22T21:52:51.104Z,12.90
2017-09-22T21:55:18.536Z,12.90
2017-09-22T21:57:45.987Z,12.90
2017-09-22T22:00:13.411Z,12.90
2017-09-22T22:02:41.623Z,12.90
2017-09-22T22:05:14.783Z,12.90
2017-09-22T22:07:43.004Z,12.90
2017-09-22T22:10:10.445Z,12.90
2017-09-22T22:12:37.880Z,12.90
2017-09-22T22:15:05.313Z,12.80
2017-09-22T22:17:32.744Z,12.90
2017-09-22T22:20:00.185Z,12.90
2017-09-22T22:22:27.620Z,12.90
2017-09-22T22:24:55.062Z,12.90
2017-09-22T22:27:22.487Z,12.90
2017-09-22T22:29:49.933Z,12.90
2017-09-22T22:32:17.360Z,12.90
2017-09-22T22:34:44.795Z,12.90
2017-09-22T22:37:12.260Z,12.80
2017-09-22T22:39:39.693Z,12.80
2017-09-22T22:42:07.884Z,12.80
2017-09-22T22:44:35.344Z,12.80
2017-09-22T22:47:03.537Z,12.80
2017-09-22T22:49:31.029Z,12.80
2017-09-22T22:51:58.448Z,12.80
2017-09-22T22:54:25.888Z,12.70
2017-09-22T22:56:53.315Z,12.80
2017-09-22T22:59:21.520Z,12.80
2017-09-22T23:01:48.958Z,12.70
2017-09-22T23:04:17.160Z,12.70
2017-09-22T23:06:44.588Z,12.70
2017-09-22T23:09:12.829Z,12.60
2017-09-22T23:11:40.240Z,12.60
2017-09-22T23:14:07.674Z,12.60
2017-09-22T23:16:35.112Z,12.50
2017-09-22T23:19:02.574Z,12.40
2017-09-22T23:21:30.008Z,12.40
2017-09-22T23:23:57.440Z,12.40
2017-09-22T23:26:26.904Z,12.40
2017-09-22T23:28:55.106Z,12.30
2017-09-22T23:31:22.538Z,12.30
2017-09-22T23:33:50.736Z,12.30
2017-09-22T23:36:18.168Z,12.30
2017-09-22T23:38:46.360Z,12.30
2017-09-22T23:41:13.806Z,12.30
2017-09-22T23:43:42.008Z,12.20
2017-09-22T23:46:09.439Z,12.30
2017-09-22T23:48:37.644Z,12.20
2017-09-22T23:51:05.088Z,12.20
2017-09-22T23:53:32.513Z,12.20
2017-09-22T23:55:59.944Z,12.20
2017-09-22T23:58:27.376Z,12.10
